Julian, CA (92036)

12:58 AM PST on January 26, 2015 (GMT -0800)
William Heise Park, Desert Overlook | Change Station
CLOSE
Current Station
Personal Weather Station
Location: Julian, CA
Elevation: 4922 ft
Nearby Weather Stations

Elev 4922 ft 33.05 °N, 116.58 °W | Updated 1 minute ago

Overcast
Overcast
51.6 °F
Feels Like 51.6 °F
N
13.0
Wind Variable Wind from NE
Gusts 19.0 mph

Today
High -- | Low -- °F
--% Chance of Precip.
Yesterday
High -- | Low -- °F
Precip. -- in
6:45 AM 5:12 PM
Waxing Crescent, 41% visible
Pressure 29.98 in
Visibility -9999.0 miles
Clouds
Dew Point 27 °F
Humidity 30%
Rainfall 0.00 in
Snow Depth Not available.
UV Not available.
Pollen 6.70 out of 12
Air Quality Not available.
Flu Activity Not available.
METAR KCZZ 260852Z AUTO 06010KT 15/M03 A3005 RMK AO1 SLP151 T01501033 58003

More Conditions Fewer Conditions

Pressure 29.98 in
Visibility -9999.0 miles
Clouds
Dew Point 27 °F
Humidity 30%
Rainfall 0.00 in
Snow Depth Not available.
UV Not available.
Pollen 6.70 out of 12
Air Quality Not available.
Flu Activity Not available.
METAR KCZZ 260852Z AUTO 06010KT 15/M03 A3005 RMK AO1 SLP151 T01501033 58003

More Conditions Fewer Conditions

10-Day Weather Forecast

Almanac

Astronomy

Jan. 26, 2015 Rise Set
Actual Time
Civil Twilight
Nautical Twilight
Astronomical Twilight
Moon
Length of Visible Light
Length of Day
Tomorrow will be .
, % of the Moon is Illuminated

Today's Extremes

State Highs State Lows

Community

WunderPhotos

Upload Photos

1,790,163 photos uploaded!

WunderBlogs® & News

Nearby

Air Quality

  Air Quality AQ Index Pollutant
Not available.

Snow Depth

Station Depth Elevation

Earthquake Activity

City Distance Mag. Time & Date
Minimum magnitude displayed is 2.5.

Coastal Water Temperatures

Place Temperature

Nearby Weather Stations